Time;durP1;ratioP1;P1;durP2;ratioP2;P2;SDS_P1;SDS_P2;PMS_P1;PMS_P2;Temp;Humidity;BMP_temperature;BMP_pressure;BME280_temperature;BME280_humidity;BME280_pressure;Samples;Min_cycle;Max_cycle;Signal;HPM_P1;HPM_P2
2022/01/21 00:00:09;;;;;;;7.17;1.70;;;;;;;;;;6185376;23;20176;-89
2022/01/21 00:03:15;;;;;;;2.27;1.13;;;;;;;;;;6202069;23;20164;-89
2022/01/21 00:06:22;;;;;;;5.47;0.97;;;;;;;;;;6183613;23;20233;-89
2022/01/21 00:09:28;;;;;;;4.80;1.20;;;;;;;;;;6184254;23;20175;-90
2022/01/21 00:12:35;;;;;;;9.73;1.37;;;;;;;;;;6182641;23;20168;-88
2022/01/21 00:15:41;;;;;;;3.50;1.20;;;;;;;;;;6186664;23;20176;-90
2022/01/21 00:18:54;;;;;;;5.93;1.03;;;;;;;;;;6188259;23;20172;-89
2022/01/21 00:32:35;;;;;;;9.10;1.60;;;;;;;;;;6190538;23;20159;-87
2022/01/21 00:35:42;;;;;;;5.47;1.03;;;;;;;;;;6190475;23;20168;-89
2022/01/21 00:42:48;;;;;;;4.37;1.10;;;;;;;;;;6192023;23;20155;-85
2022/01/21 00:45:54;;;;;;;5.70;1.13;;;;;;;;;;6186545;23;20179;-88
2022/01/21 00:49:01;;;;;;;3.70;1.10;;;;;;;;;;6184494;23;20167;-89
2022/01/21 00:52:07;;;;;;;9.67;1.40;;;;;;;;;;6182526;23;20176;-90
2022/01/21 00:55:13;;;;;;;3.27;1.00;;;;;;;;;;6200192;23;20191;-88
2022/01/21 01:01:39;;;;;;;5.57;1.00;;;;;;;;;;6182442;23;20172;-90
2022/01/21 01:04:45;;;;;;;7.73;1.50;;;;;;;;;;6179880;23;20167;-87
2022/01/21 01:07:51;;;;;;;8.03;1.60;;;;;;;;;;6180518;23;20180;-89
2022/01/21 01:21:07;;;;;;;7.90;1.10;;;;;;;;;;6182638;23;20184;-90
2022/01/21 01:27:40;;;;;;;3.20;0.93;;;;;;;;;;6182838;23;20211;-89
2022/01/21 01:30:47;;;;;;;11.13;1.73;;;;;;;;;;6181640;23;20243;-88
2022/01/21 01:33:58;;;;;;;2.30;1.00;;;;;;;;;;6181277;23;20202;-89
2022/01/21 01:37:10;;;;;;;4.23;0.83;;;;;;;;;;6181751;23;20267;-91
2022/01/21 01:40:21;;;;;;;3.83;1.07;;;;;;;;;;6184552;23;20167;-89
2022/01/21 01:50:19;;;;;;;7.93;1.20;;;;;;;;;;6181977;23;20191;-90
2022/01/21 01:53:25;;;;;;;6.13;1.20;;;;;;;;;;6182318;23;20172;-89
2022/01/21 01:56:32;;;;;;;5.87;1.10;;;;;;;;;;6180333;23;20251;-89
2022/01/21 01:59:38;;;;;;;6.67;1.53;;;;;;;;;;6182192;23;20159;-89
2022/01/21 02:02:44;;;;;;;2.67;1.07;;;;;;;;;;6183051;23;20447;-90
2022/01/21 02:05:50;;;;;;;6.80;1.07;;;;;;;;;;6181330;23;20231;-90
2022/01/21 02:08:56;;;;;;;5.50;1.27;;;;;;;;;;6182390;23;20212;-89
2022/01/21 02:12:01;;;;;;;3.80;1.30;;;;;;;;;;6181724;23;20167;-90
2022/01/21 02:15:07;;;;;;;9.63;1.23;;;;;;;;;;6182436;23;20806;-88
2022/01/21 02:21:42;;;;;;;9.60;1.50;;;;;;;;;;6168590;23;20187;-90
2022/01/21 02:24:51;;;;;;;8.13;1.40;;;;;;;;;;6183226;23;20216;-88
2022/01/21 02:27:59;;;;;;;8.93;1.57;;;;;;;;;;6181870;23;20210;-89
2022/01/21 02:31:07;;;;;;;3.70;1.20;;;;;;;;;;6181664;23;20176;-90
2022/01/21 02:34:13;;;;;;;7.33;1.30;;;;;;;;;;6181258;23;20200;-92
2022/01/21 02:37:20;;;;;;;6.77;1.93;;;;;;;;;;6183445;23;20192;-90
2022/01/21 02:40:27;;;;;;;7.10;1.73;;;;;;;;;;6183664;23;20168;-90
2022/01/21 02:43:33;;;;;;;6.47;2.40;;;;;;;;;;6180301;23;20250;-88
2022/01/21 02:46:41;;;;;;;2.50;0.90;;;;;;;;;;6180949;23;20163;-91
2022/01/21 02:49:46;;;;;;;4.60;1.10;;;;;;;;;;6182155;23;20303;-91
2022/01/21 02:53:08;;;;;;;2.90;0.70;;;;;;;;;;6182251;23;20682;-89
2022/01/21 02:56:13;;;;;;;6.63;1.33;;;;;;;;;;6200015;23;20176;-90
2022/01/21 02:59:19;;;;;;;5.83;0.93;;;;;;;;;;6183550;23;20262;-90
2022/01/21 03:02:24;;;;;;;7.93;1.10;;;;;;;;;;6182302;23;20171;-89
2022/01/21 03:05:29;;;;;;;9.60;1.20;;;;;;;;;;6182033;23;20156;-89
2022/01/21 03:08:36;;;;;;;1.13;0.80;;;;;;;;;;6185784;23;20187;-91
2022/01/21 03:11:41;;;;;;;4.23;1.10;;;;;;;;;;6185990;23;20299;-92
2022/01/21 03:14:47;;;;;;;5.13;1.20;;;;;;;;;;6181807;23;20327;-89
2022/01/21 03:17:52;;;;;;;5.17;0.93;;;;;;;;;;6182631;23;20172;-89
2022/01/21 03:20:57;;;;;;;6.90;1.27;;;;;;;;;;6182355;23;20219;-90
2022/01/21 03:24:03;;;;;;;6.63;1.30;;;;;;;;;;6201161;23;20156;-90
2022/01/21 03:27:08;;;;;;;2.40;0.90;;;;;;;;;;6182678;23;20207;-90
2022/01/21 03:30:13;;;;;;;7.00;1.77;;;;;;;;;;6181732;23;20171;-90
2022/01/21 03:33:25;;;;;;;5.47;1.27;;;;;;;;;;6182685;23;20174;-89
2022/01/21 03:36:30;;;;;;;8.67;1.53;;;;;;;;;;6182931;23;20167;-89
2022/01/21 03:39:37;;;;;;;7.47;1.53;;;;;;;;;;6183083;23;20236;-91
2022/01/21 03:42:43;;;;;;;5.23;1.20;;;;;;;;;;6181704;23;20207;-89
2022/01/21 03:45:49;;;;;;;4.53;1.27;;;;;;;;;;6181066;23;20622;-89
2022/01/21 03:48:54;;;;;;;4.67;1.10;;;;;;;;;;6181975;23;20168;-92
2022/01/21 03:51:59;;;;;;;7.60;1.27;;;;;;;;;;6180698;23;20638;-91
2022/01/21 03:55:06;;;;;;;6.10;1.30;;;;;;;;;;6180012;23;20247;-91
2022/01/21 03:58:12;;;;;;;4.00;1.10;;;;;;;;;;6181880;23;20197;-89
2022/01/21 04:01:23;;;;;;;5.67;1.10;;;;;;;;;;6181172;23;20278;-91
2022/01/21 04:04:29;;;;;;;4.53;1.00;;;;;;;;;;6182619;23;20159;-90
2022/01/21 04:07:34;;;;;;;4.93;1.27;;;;;;;;;;6182855;23;20183;-89
2022/01/21 04:10:42;;;;;;;4.33;1.00;;;;;;;;;;6181909;23;20171;-89
2022/01/21 04:13:47;;;;;;;5.40;1.53;;;;;;;;;;6183011;23;20183;-89
2022/01/21 04:16:56;;;;;;;2.93;0.93;;;;;;;;;;6183473;23;20172;-91
2022/01/21 04:20:02;;;;;;;7.03;1.30;;;;;;;;;;6183664;23;20235;-89
2022/01/21 04:23:08;;;;;;;5.03;1.30;;;;;;;;;;6183547;23;20248;-90
2022/01/21 04:26:15;;;;;;;6.57;1.37;;;;;;;;;;6183110;23;20238;-90
2022/01/21 04:29:20;;;;;;;7.23;1.40;;;;;;;;;;6182930;23;20155;-90
2022/01/21 04:32:29;;;;;;;6.50;1.17;;;;;;;;;;6184610;23;20156;-90
2022/01/21 04:35:36;;;;;;;4.47;1.20;;;;;;;;;;6182241;23;20304;-88
2022/01/21 04:38:41;;;;;;;10.00;1.20;;;;;;;;;;6184979;23;20198;-92
2022/01/21 04:48:32;;;;;;;6.20;1.10;;;;;;;;;;6201391;23;20215;-88
2022/01/21 04:51:41;;;;;;;2.70;1.07;;;;;;;;;;6185098;23;20171;-88
2022/01/21 04:54:48;;;;;;;3.00;1.00;;;;;;;;;;6184705;23;20195;-91
2022/01/21 04:57:55;;;;;;;4.37;0.80;;;;;;;;;;6185293;23;20180;-89
2022/01/21 05:01:18;;;;;;;7.80;1.20;;;;;;;;;;6183678;23;20168;-89
2022/01/21 05:04:25;;;;;;;6.97;1.30;;;;;;;;;;6185663;23;20196;-91
2022/01/21 05:07:33;;;;;;;3.00;0.90;;;;;;;;;;6187118;23;20219;-89
2022/01/21 05:10:38;;;;;;;3.73;0.90;;;;;;;;;;6186061;23;20168;-90
2022/01/21 05:13:54;;;;;;;8.10;1.13;;;;;;;;;;6185833;23;20168;-90
2022/01/21 05:17:04;;;;;;;5.47;1.40;;;;;;;;;;6186152;23;20160;-90
2022/01/21 05:20:10;;;;;;;3.07;1.00;;;;;;;;;;6184172;23;20207;-89
2022/01/21 05:23:31;;;;;;;7.03;1.10;;;;;;;;;;6187700;23;20228;-90
2022/01/21 05:26:38;;;;;;;11.73;1.70;;;;;;;;;;6185806;23;20509;-89
2022/01/21 05:29:45;;;;;;;7.17;1.17;;;;;;;;;;6184349;23;20233;-88
2022/01/21 05:32:59;;;;;;;6.77;1.53;;;;;;;;;;6184853;23;20235;-91
2022/01/21 05:36:23;;;;;;;8.63;1.97;;;;;;;;;;6200716;23;20565;-90
2022/01/21 05:39:58;;;;;;;6.63;1.40;;;;;;;;;;6201188;23;20171;-90
2022/01/21 05:43:24;;;;;;;15.40;8.27;;;;;;;;;;6201749;23;20239;-89
2022/01/21 05:46:55;;;;;;;16.20;2.70;;;;;;;;;;6201939;23;20199;-91
2022/01/21 05:50:29;;;;;;;8.93;1.87;;;;;;;;;;6145116;23;20200;-90
2022/01/21 05:53:46;;;;;;;8.87;1.80;;;;;;;;;;6184075;23;20168;-90
2022/01/21 05:57:30;;;;;;;49.13;11.87;;;;;;;;;;6202849;23;20171;-91
2022/01/21 06:00:36;;;;;;;5.93;1.83;;;;;;;;;;6186272;23;20172;-89
2022/01/21 06:03:43;;;;;;;8.57;2.23;;;;;;;;;;6185583;23;20160;-93
2022/01/21 06:06:48;;;;;;;11.00;2.17;;;;;;;;;;6181622;23;20171;-88
2022/01/21 06:09:54;;;;;;;9.50;2.40;;;;;;;;;;6183422;23;20164;-91
2022/01/21 06:12:59;;;;;;;6.93;1.90;;;;;;;;;;6185363;23;20561;-89
2022/01/21 06:16:06;;;;;;;17.13;2.50;;;;;;;;;;6185201;23;20191;-90
2022/01/21 06:19:13;;;;;;;5.17;1.83;;;;;;;;;;6168803;23;20244;-88
2022/01/21 06:22:19;;;;;;;8.87;2.50;;;;;;;;;;6184757;23;20164;-89
2022/01/21 06:25:24;;;;;;;8.40;2.07;;;;;;;;;;6184425;23;20668;-90
2022/01/21 06:28:33;;;;;;;11.17;2.53;;;;;;;;;;6184394;23;20478;-91
2022/01/21 06:31:39;;;;;;;15.10;2.13;;;;;;;;;;6184536;23;20164;-88
2022/01/21 06:34:47;;;;;;;10.83;2.03;;;;;;;;;;6185176;23;20205;-88
2022/01/21 06:37:53;;;;;;;5.90;1.50;;;;;;;;;;6188970;23;20187;-88
2022/01/21 06:41:11;;;;;;;7.67;1.73;;;;;;;;;;6166378;23;20180;-90
2022/01/21 06:44:16;;;;;;;8.30;1.83;;;;;;;;;;6184824;23;20164;-90
2022/01/21 06:47:22;;;;;;;8.30;2.30;;;;;;;;;;6183422;23;20230;-88
2022/01/21 06:50:32;;;;;;;15.60;2.40;;;;;;;;;;6187716;23;20201;-89
2022/01/21 06:53:37;;;;;;;7.53;2.00;;;;;;;;;;6185854;23;20196;-89
2022/01/21 06:56:43;;;;;;;13.27;6.67;;;;;;;;;;6185935;23;20323;-90
2022/01/21 06:59:48;;;;;;;9.10;2.47;;;;;;;;;;6186296;23;20164;-88
2022/01/21 07:06:15;;;;;;;5.87;2.03;;;;;;;;;;6186504;23;20252;-88
2022/01/21 07:09:21;;;;;;;6.73;1.70;;;;;;;;;;6183758;23;20163;-91
2022/01/21 07:12:26;;;;;;;6.73;2.10;;;;;;;;;;6187885;23;20208;-89
2022/01/21 07:15:31;;;;;;;18.90;2.00;;;;;;;;;;6186319;23;20215;-90
2022/01/21 07:18:36;;;;;;;5.33;2.10;;;;;;;;;;6187365;23;20175;-90
2022/01/21 07:21:44;;;;;;;12.40;2.33;;;;;;;;;;6185901;23;20264;-88
2022/01/21 07:24:49;;;;;;;11.67;2.07;;;;;;;;;;6181654;23;20171;-90
2022/01/21 07:27:54;;;;;;;7.10;1.70;;;;;;;;;;6182923;23;20175;-89
2022/01/21 07:31:00;;;;;;;5.40;1.70;;;;;;;;;;6183828;23;20163;-90
2022/01/21 07:34:07;;;;;;;6.70;1.80;;;;;;;;;;6185601;23;20259;-88
2022/01/21 07:37:13;;;;;;;3.77;1.63;;;;;;;;;;6185815;23;20270;-91
2022/01/21 07:40:25;;;;;;;10.13;2.07;;;;;;;;;;6184411;23;20167;-89
2022/01/21 07:43:31;;;;;;;7.13;1.90;;;;;;;;;;6184592;23;20236;-90
2022/01/21 07:46:36;;;;;;;10.20;2.13;;;;;;;;;;6183796;23;20172;-90
2022/01/21 07:49:42;;;;;;;13.23;1.90;;;;;;;;;;6183709;23;20160;-89
2022/01/21 07:52:49;;;;;;;8.17;1.83;;;;;;;;;;6186952;23;20611;-90
2022/01/21 07:55:54;;;;;;;6.57;2.00;;;;;;;;;;6184243;23;20694;-87
2022/01/21 07:58:59;;;;;;;15.10;1.60;;;;;;;;;;6185579;23;20451;-89
2022/01/21 08:02:06;;;;;;;10.90;2.43;;;;;;;;;;6184091;23;20251;-89
2022/01/21 08:05:11;;;;;;;10.33;2.10;;;;;;;;;;6186632;23;20224;-90
2022/01/21 08:08:24;;;;;;;12.10;1.73;;;;;;;;;;6184571;23;20306;-88
2022/01/21 08:11:29;;;;;;;15.53;2.73;;;;;;;;;;6182993;23;20167;-89
2022/01/21 08:14:34;;;;;;;11.97;2.00;;;;;;;;;;6184930;23;20152;-88
2022/01/21 08:17:40;;;;;;;6.53;1.73;;;;;;;;;;6184479;23;20168;-90
2022/01/21 08:20:45;;;;;;;12.57;2.00;;;;;;;;;;6185420;23;20251;-89
2022/01/21 08:23:55;;;;;;;14.37;2.77;;;;;;;;;;6187286;23;20509;-89
2022/01/21 08:27:01;;;;;;;11.77;2.77;;;;;;;;;;6184961;23;20171;-89
2022/01/21 08:30:08;;;;;;;11.83;2.67;;;;;;;;;;6187043;23;20164;-87
2022/01/21 08:33:15;;;;;;;8.10;2.20;;;;;;;;;;6185695;23;20179;-89
2022/01/21 08:36:22;;;;;;;14.57;2.90;;;;;;;;;;6185650;23;20199;-89
2022/01/21 08:39:30;;;;;;;10.13;2.13;;;;;;;;;;6186532;23;20198;-89
2022/01/21 08:42:37;;;;;;;17.37;2.20;;;;;;;;;;6186146;23;20179;-91
2022/01/21 08:45:44;;;;;;;13.27;2.10;;;;;;;;;;6183720;23;20159;-88
2022/01/21 08:48:50;;;;;;;6.20;1.87;;;;;;;;;;6185902;23;20172;-90
2022/01/21 08:51:57;;;;;;;9.00;1.80;;;;;;;;;;6184530;23;20184;-89
2022/01/21 08:55:07;;;;;;;11.90;1.97;;;;;;;;;;6185080;23;20205;-89
2022/01/21 08:58:12;;;;;;;5.87;1.37;;;;;;;;;;6187013;23;20255;-89
2022/01/21 09:01:18;;;;;;;8.57;1.77;;;;;;;;;;6183567;23;20196;-88
2022/01/21 09:04:24;;;;;;;7.97;2.30;;;;;;;;;;6186132;23;20195;-88
2022/01/21 09:07:29;;;;;;;4.50;1.70;;;;;;;;;;6184249;23;20209;-90
2022/01/21 09:10:38;;;;;;;10.17;1.90;;;;;;;;;;6184622;23;20172;-88
2022/01/21 09:13:44;;;;;;;10.20;1.93;;;;;;;;;;6178352;23;20220;-88
2022/01/21 09:16:51;;;;;;;7.13;1.50;;;;;;;;;;6179689;23;20199;-87
2022/01/21 09:19:56;;;;;;;13.93;2.53;;;;;;;;;;6179040;23;20156;-90
2022/01/21 09:23:02;;;;;;;8.00;2.00;;;;;;;;;;6178030;23;20180;-91
2022/01/21 09:26:09;;;;;;;6.37;1.57;;;;;;;;;;6179250;23;20171;-90
2022/01/21 09:29:14;;;;;;;9.17;1.60;;;;;;;;;;6177066;23;20210;-89
2022/01/21 09:32:20;;;;;;;8.90;1.53;;;;;;;;;;6176979;23;20457;-88
2022/01/21 09:35:25;;;;;;;12.27;2.37;;;;;;;;;;6180585;23;20175;-89
2022/01/21 09:38:30;;;;;;;9.50;2.40;;;;;;;;;;6179758;23;20191;-88
2022/01/21 09:41:36;;;;;;;6.93;1.90;;;;;;;;;;6179558;23;20171;-89
2022/01/21 09:44:42;;;;;;;11.50;2.03;;;;;;;;;;6175788;23;20243;-89
2022/01/21 09:47:49;;;;;;;8.07;1.83;;;;;;;;;;6177044;23;20275;-90
2022/01/21 09:50:56;;;;;;;11.20;2.00;;;;;;;;;;6177695;23;20211;-91
2022/01/21 09:54:02;;;;;;;6.67;1.43;;;;;;;;;;6178746;23;20196;-89
2022/01/21 09:57:09;;;;;;;14.40;1.53;;;;;;;;;;6176682;23;20244;-86
2022/01/21 10:00:15;;;;;;;6.53;1.23;;;;;;;;;;6177218;23;20171;-89
2022/01/21 10:03:22;;;;;;;5.27;1.77;;;;;;;;;;6177520;23;20168;-90
2022/01/21 10:06:27;;;;;;;12.40;2.10;;;;;;;;;;6177804;23;20163;-89
2022/01/21 10:09:33;;;;;;;10.27;2.10;;;;;;;;;;6176133;23;20235;-89
2022/01/21 10:12:43;;;;;;;6.33;2.13;;;;;;;;;;6176204;23;20176;-90
2022/01/21 10:15:49;;;;;;;8.20;1.80;;;;;;;;;;6175439;23;20433;-88
2022/01/21 10:19:01;;;;;;;7.47;1.80;;;;;;;;;;6180919;23;20168;-89
2022/01/21 10:22:09;;;;;;;9.53;1.70;;;;;;;;;;6180733;23;20187;-89
2022/01/21 10:25:16;;;;;;;7.07;1.43;;;;;;;;;;6176456;23;20264;-89
2022/01/21 10:28:24;;;;;;;7.43;1.70;;;;;;;;;;6175462;23;20231;-87
2022/01/21 10:31:30;;;;;;;9.50;1.50;;;;;;;;;;6174938;23;20172;-88
2022/01/21 10:34:38;;;;;;;13.97;1.73;;;;;;;;;;6174927;23;20160;-88
2022/01/21 10:37:45;;;;;;;8.93;1.40;;;;;;;;;;6175887;23;20291;-88
2022/01/21 10:40:50;;;;;;;7.17;1.80;;;;;;;;;;6179919;23;20179;-90
2022/01/21 10:44:08;;;;;;;8.87;1.87;;;;;;;;;;6182217;23;20179;-87
2022/01/21 10:47:13;;;;;;;9.73;2.00;;;;;;;;;;6183185;23;20180;-89
2022/01/21 10:50:20;;;;;;;13.23;2.93;;;;;;;;;;6183596;23;20215;-89
2022/01/21 10:53:30;;;;;;;6.23;1.73;;;;;;;;;;6184028;23;20644;-88
2022/01/21 10:56:36;;;;;;;7.80;1.83;;;;;;;;;;6184854;23;20188;-89
2022/01/21 10:59:48;;;;;;;6.67;1.63;;;;;;;;;;6184108;23;20167;-88
2022/01/21 11:02:53;;;;;;;12.30;1.90;;;;;;;;;;6183745;23;20168;-91
2022/01/21 11:06:11;;;;;;;8.13;1.90;;;;;;;;;;6186990;23;20175;-88
2022/01/21 11:09:17;;;;;;;10.67;1.77;;;;;;;;;;6187769;23;20221;-90
2022/01/21 11:12:24;;;;;;;10.57;2.20;;;;;;;;;;6187259;23;20172;-89
2022/01/21 11:15:48;;;;;;;8.97;2.40;;;;;;;;;;6190072;23;20216;-88
2022/01/21 19:11:49;;;;;;;17.50;6.53;;;;;;;;;;6127381;23;20549;-88
2022/01/21 19:14:54;;;;;;;21.47;6.80;;;;;;;;;;6182941;23;20164;-91
2022/01/21 19:18:00;;;;;;;17.07;6.97;;;;;;;;;;6182276;23;20516;-90
2022/01/21 19:21:07;;;;;;;19.37;6.83;;;;;;;;;;6182572;23;20175;-89
2022/01/21 19:24:24;;;;;;;11.60;5.13;;;;;;;;;;6183554;23;20417;-88
2022/01/21 19:27:31;;;;;;;18.10;6.33;;;;;;;;;;6183845;23;20172;-89
2022/01/21 19:30:38;;;;;;;14.00;5.10;;;;;;;;;;6183439;23;20172;-89
2022/01/21 19:33:43;;;;;;;14.40;5.83;;;;;;;;;;6184207;23;20191;-89
2022/01/21 19:36:49;;;;;;;19.40;6.53;;;;;;;;;;6185132;23;20238;-89
2022/01/21 19:39:54;;;;;;;22.43;8.27;;;;;;;;;;6184156;23;20171;-90
2022/01/21 20:01:06;;;;;;;16.77;7.00;;;;;;;;;;6164267;23;20228;-90
2022/01/21 20:11:13;;;;;;;20.93;8.07;;;;;;;;;;6183988;23;20176;-90
2022/01/21 20:14:26;;;;;;;22.33;7.97;;;;;;;;;;6182755;23;20183;-89
2022/01/21 20:17:42;;;;;;;14.33;6.23;;;;;;;;;;6182334;23;20263;-88
2022/01/21 20:20:47;;;;;;;19.63;7.20;;;;;;;;;;6182291;23;20176;-89
2022/01/21 20:23:55;;;;;;;23.43;8.57;;;;;;;;;;6183917;23;20231;-90
2022/01/21 20:27:00;;;;;;;23.13;8.40;;;;;;;;;;6184165;23;20187;-90
2022/01/21 20:30:07;;;;;;;30.90;10.83;;;;;;;;;;6184184;23;20163;-90
2022/01/21 20:33:19;;;;;;;29.73;9.17;;;;;;;;;;6185817;23;20180;-89
2022/01/21 20:36:29;;;;;;;24.40;8.30;;;;;;;;;;6183342;23;20243;-89
2022/01/21 20:39:43;;;;;;;21.10;7.27;;;;;;;;;;6182976;23;20240;-87
2022/01/21 20:42:48;;;;;;;19.37;8.43;;;;;;;;;;6181312;23;20163;-90
2022/01/21 20:45:54;;;;;;;16.60;6.90;;;;;;;;;;6182278;23;20201;-88
2022/01/21 20:49:01;;;;;;;16.37;7.47;;;;;;;;;;6182360;23;20151;-90
2022/01/21 20:52:07;;;;;;;21.57;9.23;;;;;;;;;;6184681;23;20203;-88
2022/01/21 20:55:13;;;;;;;22.77;9.00;;;;;;;;;;6183517;23;20175;-87
2022/01/21 20:58:19;;;;;;;27.60;11.07;;;;;;;;;;6182037;23;20258;-89
2022/01/21 21:01:25;;;;;;;21.77;9.57;;;;;;;;;;6183779;23;20184;-89
2022/01/21 21:04:32;;;;;;;19.17;8.00;;;;;;;;;;6166670;23;20180;-90
2022/01/21 21:07:37;;;;;;;25.37;8.37;;;;;;;;;;6182485;23;20204;-86
2022/01/21 21:10:43;;;;;;;25.63;9.40;;;;;;;;;;6182774;23;20156;-88
2022/01/21 21:13:51;;;;;;;18.70;7.53;;;;;;;;;;6181921;23;20646;-89
2022/01/21 21:17:07;;;;;;;18.70;7.40;;;;;;;;;;6183213;23;20274;-88
2022/01/21 21:27:11;;;;;;;19.60;7.53;;;;;;;;;;6181944;23;20192;-90
2022/01/21 21:30:26;;;;;;;40.00;14.20;;;;;;;;;;6181646;23;20164;-90
2022/01/21 23:11:59;;;;;;;19.30;7.70;;;;;;;;;;6154342;22;1406307;-87
2022/01/21 23:15:09;;;;;;;13.27;5.67;;;;;;;;;;6209610;23;20163;-90
2022/01/21 23:18:14;;;;;;;17.17;6.30;;;;;;;;;;6209462;23;20172;-90
2022/01/21 23:21:21;;;;;;;19.63;6.73;;;;;;;;;;6209436;23;20211;-88
2022/01/21 23:24:28;;;;;;;16.80;6.60;;;;;;;;;;6207794;23;20163;-88
2022/01/21 23:27:37;;;;;;;10.90;5.03;;;;;;;;;;6207408;23;20553;-88
2022/01/21 23:30:42;;;;;;;18.97;6.67;;;;;;;;;;6214068;23;20203;-90
2022/01/21 23:33:50;;;;;;;16.47;5.63;;;;;;;;;;6211156;23;20207;-89
2022/01/21 23:37:03;;;;;;;16.17;6.60;;;;;;;;;;6210675;23;20175;-89
2022/01/21 23:40:18;;;;;;;13.00;6.13;;;;;;;;;;6210371;23;20220;-90
2022/01/21 23:43:25;;;;;;;13.97;6.83;;;;;;;;;;6210245;23;20176;-90
2022/01/21 23:46:32;;;;;;;16.77;6.87;;;;;;;;;;6211717;23;20244;-88
2022/01/21 23:49:39;;;;;;;18.60;6.50;;;;;;;;;;6210281;23;20168;-88
2022/01/21 23:52:45;;;;;;;15.07;6.53;;;;;;;;;;6209178;23;20246;-89
2022/01/21 23:55:51;;;;;;;16.27;6.07;;;;;;;;;;6209448;23;20233;-88
2022/01/21 23:59:01;;;;;;;13.57;7.00;;;;;;;;;;6203725;23;20280;-88
